Time;durP1;ratioP1;P1;durP2;ratioP2;P2;SDS_P1;SDS_P2;PMS_P1;PMS_P2;Temp;Humidity;BMP_temperature;BMP_pressure;BME280_temperature;BME280_humidity;BME280_pressure;Samples;Min_cycle;Max_cycle;Signal;HPM_P1;HPM_P2
2024/01/14 00:00:26;;;;;;;0.88;0.50;;;20.40;43.10;;;;;;5120956;28;20049;-37
2024/01/14 00:02:52;;;;;;;0.80;0.40;;;20.40;43.10;;;;;;5118559;27;20032;-35
2024/01/14 00:05:18;;;;;;;1.05;0.47;;;20.40;43.30;;;;;;5120005;27;20108;-33
2024/01/14 00:07:44;;;;;;;1.13;0.52;;;20.40;43.30;;;;;;5122037;27;20030;-33
2024/01/14 00:10:10;;;;;;;0.38;0.28;;;20.30;43.30;;;;;;5120755;27;20030;-31
2024/01/14 00:12:36;;;;;;;0.82;0.30;;;20.30;43.40;;;;;;5116326;27;20035;-35
2024/01/14 00:15:23;;;;;;;1.63;0.40;;;20.30;43.30;;;;;;5111578;28;20057;-32
2024/01/14 00:17:49;;;;;;;1.05;0.50;;;20.40;43.30;;;;;;5115075;28;20047;-33
2024/01/14 00:20:15;;;;;;;0.85;0.50;;;20.40;43.40;;;;;;5114728;28;20044;-36
2024/01/14 00:22:41;;;;;;;0.45;0.40;;;20.30;43.40;;;;;;5109296;28;20027;-34
2024/01/14 00:25:08;;;;;;;1.38;0.40;;;20.30;43.40;;;;;;5113354;28;20032;-33
2024/01/14 00:27:34;;;;;;;1.02;0.40;;;20.20;43.40;;;;;;5115966;28;20053;-34
2024/01/14 00:30:00;;;;;;;0.52;0.45;;;20.20;43.40;;;;;;5118716;28;20034;-34
2024/01/14 00:32:26;;;;;;;0.93;0.47;;;20.30;43.30;;;;;;5118342;28;20038;-35
2024/01/14 00:34:52;;;;;;;0.57;0.40;;;20.30;43.30;;;;;;5116130;28;20031;-36
2024/01/14 00:37:19;;;;;;;0.80;0.60;;;20.30;43.50;;;;;;5116968;28;20147;-33
2024/01/14 00:39:45;;;;;;;0.50;0.40;;;20.20;43.50;;;;;;5114789;28;20052;-36
2024/01/14 00:42:11;;;;;;;0.70;0.50;;;20.20;43.50;;;;;;5118074;28;20036;-33
2024/01/14 00:44:39;;;;;;;0.50;0.45;;;20.20;43.60;;;;;;5118133;28;20078;-36
2024/01/14 00:47:06;;;;;;;0.68;0.50;;;20.20;43.40;;;;;;5098633;28;20114;-31
2024/01/14 00:49:32;;;;;;;2.20;0.50;;;20.20;43.40;;;;;;5117866;28;20031;-33
2024/01/14 00:51:58;;;;;;;0.93;0.50;;;20.20;43.50;;;;;;5107862;28;20044;-35
2024/01/14 00:54:24;;;;;;;0.40;0.40;;;20.20;43.60;;;;;;5093273;28;20046;-33
2024/01/14 00:56:50;;;;;;;0.40;0.40;;;20.10;43.40;;;;;;5093382;28;20036;-37
2024/01/14 00:59:16;;;;;;;0.60;0.50;;;20.10;43.50;;;;;;5092921;28;20036;-32
2024/01/14 01:01:43;;;;;;;0.55;0.30;;;20.10;43.50;;;;;;5096071;28;20032;-32
2024/01/14 01:04:09;;;;;;;2.28;0.52;;;20.20;43.50;;;;;;5095516;28;20020;-37
2024/01/14 01:06:36;;;;;;;1.00;0.50;;;20.10;43.50;;;;;;5094827;28;20039;-34
2024/01/14 01:09:03;;;;;;;0.60;0.50;;;20.10;43.60;;;;;;5089984;28;20348;-34
2024/01/14 01:11:29;;;;;;;0.75;0.50;;;20.00;43.60;;;;;;5094280;28;20037;-33
2024/01/14 01:13:56;;;;;;;0.93;0.40;;;20.00;43.70;;;;;;5100137;28;20123;-33
2024/01/14 01:16:22;;;;;;;0.40;0.40;;;20.00;43.50;;;;;;5098807;28;20024;-34
2024/01/14 01:18:49;;;;;;;0.65;0.50;;;20.10;43.50;;;;;;5099153;28;20035;-34
2024/01/14 01:21:20;;;;;;;0.55;0.50;;;20.10;43.60;;;;;;5097285;28;20052;-35
2024/01/14 01:23:46;;;;;;;0.80;0.60;;;20.10;43.70;;;;;;5099548;28;20047;-35
2024/01/14 01:26:12;;;;;;;0.40;0.40;;;20.00;43.60;;;;;;5100864;28;20028;-34
2024/01/14 01:28:38;;;;;;;1.38;0.50;;;20.00;43.70;;;;;;5118377;28;20040;-36
2024/01/14 01:31:05;;;;;;;0.73;0.60;;;20.00;43.60;;;;;;5116336;28;20027;-32
2024/01/14 01:33:32;;;;;;;1.45;0.30;;;20.00;43.50;;;;;;5119583;28;20028;-32
2024/01/14 01:35:59;;;;;;;0.50;0.40;;;20.10;43.60;;;;;;5119906;28;20035;-36
2024/01/14 01:38:26;;;;;;;1.73;0.60;;;20.00;43.70;;;;;;5122349;27;20087;-36
2024/01/14 01:40:53;;;;;;;0.50;0.50;;;20.00;43.70;;;;;;5117696;28;20046;-37
2024/01/14 01:43:19;;;;;;;0.50;0.50;;;19.90;43.70;;;;;;5111737;28;20036;-32
2024/01/14 01:45:46;;;;;;;1.48;0.40;;;19.90;43.70;;;;;;5112719;28;20696;-32
2024/01/14 01:48:13;;;;;;;0.50;0.47;;;20.00;43.60;;;;;;5113669;28;20024;-37
2024/01/14 01:50:40;;;;;;;0.75;0.50;;;20.00;43.50;;;;;;5108921;28;20035;-36
2024/01/14 01:53:07;;;;;;;0.80;0.55;;;20.00;43.60;;;;;;5109386;27;20030;-35
2024/01/14 01:55:34;;;;;;;;;;;19.90;43.70;;;;;;5111693;28;20135;-33
2024/01/14 01:58:00;;;;;;;0.70;0.50;;;19.90;43.70;;;;;;5112077;28;19911;-37
2024/01/14 02:00:27;;;;;;;0.50;0.38;;;19.80;43.70;;;;;;5111368;28;20058;-34
2024/01/14 02:02:54;;;;;;;0.65;0.40;;;19.90;43.60;;;;;;5110726;28;20062;-37
2024/01/14 02:05:21;;;;;;;1.02;0.57;;;19.90;43.60;;;;;;5111325;28;20095;-35
2024/01/14 02:07:48;;;;;;;;;;;19.90;43.70;;;;;;5108948;28;20032;-33
2024/01/14 02:10:16;;;;;;;1.23;0.50;;;19.90;43.70;;;;;;5110689;28;19915;-33
2024/01/14 02:12:43;;;;;;;0.60;0.50;;;19.80;43.80;;;;;;5116137;28;20034;-33
2024/01/14 02:15:12;;;;;;;0.50;0.50;;;19.80;43.80;;;;;;5116935;28;20027;-32
2024/01/14 02:17:42;;;;;;;0.60;0.43;;;19.80;43.80;;;;;;5113330;28;20027;-34
2024/01/14 02:20:10;;;;;;;1.73;0.50;;;19.90;43.80;;;;;;5113891;28;20036;-33
2024/01/14 02:22:41;;;;;;;0.77;0.47;;;19.80;43.70;;;;;;5115745;28;20030;-37
2024/01/14 02:25:08;;;;;;;0.43;0.40;;;19.80;43.80;;;;;;5116912;28;20032;-32
2024/01/14 02:27:38;;;;;;;0.50;0.40;;;19.80;43.90;;;;;;5115746;28;20099;-34
2024/01/14 02:30:07;;;;;;;0.50;0.47;;;19.70;43.90;;;;;;5113233;28;20107;-34
2024/01/14 02:32:40;;;;;;;0.65;0.50;;;19.70;43.90;;;;;;5114362;28;20024;-32
2024/01/14 02:35:07;;;;;;;0.70;0.50;;;19.80;43.90;;;;;;5116236;28;20040;-33
2024/01/14 02:37:43;;;;;;;;;;;19.80;43.80;;;;;;5115372;28;20036;-35
2024/01/14 02:40:14;;;;;;;0.50;0.50;;;19.70;43.90;;;;;;5116440;28;19916;-37
2024/01/14 02:42:44;;;;;;;2.40;0.60;;;19.70;44.00;;;;;;5114340;28;20020;-34
2024/01/14 02:45:18;;;;;;;1.08;0.75;;;19.60;44.00;;;;;;5113947;28;20084;-36
2024/01/14 02:47:47;;;;;;;1.35;0.77;;;19.70;43.90;;;;;;5116335;28;20144;-36
2024/01/14 02:50:17;;;;;;;1.85;1.10;;;19.70;43.80;;;;;;5112244;28;20024;-34
2024/01/14 02:52:47;;;;;;;1.45;1.08;;;19.70;43.80;;;;;;5114195;28;20050;-31
2024/01/14 02:55:18;;;;;;;3.33;1.02;;;19.70;43.90;;;;;;5115099;28;20425;-36
2024/01/14 02:57:50;;;;;;;1.58;1.00;;;19.60;43.90;;;;;;5116017;28;20034;-35
2024/01/14 03:00:19;;;;;;;1.50;1.10;;;19.60;44.00;;;;;;5114096;28;20050;-34
2024/01/14 03:02:54;;;;;;;2.28;1.50;;;19.60;43.90;;;;;;5118724;28;20114;-35
2024/01/14 03:05:24;;;;;;;2.67;1.70;;;19.70;43.80;;;;;;5120966;28;20039;-37
2024/01/14 03:07:55;;;;;;;2.38;1.40;;;19.70;43.80;;;;;;5120386;28;20028;-34
2024/01/14 03:10:24;;;;;;;2.72;1.67;;;19.60;43.90;;;;;;5119323;28;20035;-37
2024/01/14 03:12:53;;;;;;;5.63;1.75;;;19.60;44.10;;;;;;5117470;27;20027;-35
2024/01/14 03:15:20;;;;;;;1.90;1.30;;;19.50;44.60;;;;;;5116671;28;20099;-37
2024/01/14 03:17:48;;;;;;;2.88;1.67;;;19.60;43.90;;;;;;5121522;28;20084;-35
2024/01/14 03:20:15;;;;;;;3.78;2.10;;;19.60;43.90;;;;;;5117502;28;20039;-35
2024/01/14 03:22:42;;;;;;;3.05;1.50;;;19.60;43.90;;;;;;5121224;28;20031;-35
2024/01/14 03:25:10;;;;;;;3.20;2.10;;;19.60;44.10;;;;;;5119430;28;20051;-35
2024/01/14 03:27:37;;;;;;;2.65;1.63;;;19.50;44.00;;;;;;5118786;28;20131;-36
2024/01/14 03:30:05;;;;;;;2.70;1.63;;;19.50;44.00;;;;;;5120088;28;20118;-36
2024/01/14 03:32:33;;;;;;;3.55;2.08;;;19.50;43.90;;;;;;5119674;28;20095;-36
2024/01/14 03:35:00;;;;;;;3.60;2.00;;;19.60;43.90;;;;;;5118427;28;20925;-36
2024/01/14 03:37:27;;;;;;;;;;;19.60;43.90;;;;;;5121809;28;20055;-32
2024/01/14 03:39:56;;;;;;;3.97;1.88;;;19.50;44.00;;;;;;5119528;28;19924;-35
2024/01/14 03:42:23;;;;;;;3.63;2.08;;;19.40;44.00;;;;;;5120612;28;20079;-32
2024/01/14 03:44:50;;;;;;;;;;;19.40;44.10;;;;;;5119843;28;20092;-36
2024/01/14 03:47:17;;;;;;;3.83;2.03;;;19.60;44.10;;;;;;5122053;27;19911;-33
2024/01/14 03:49:45;;;;;;;3.63;2.40;;;19.60;44.60;;;;;;5117109;28;20085;-34
2024/01/14 03:52:13;;;;;;;3.65;2.30;;;19.70;44.00;;;;;;5116355;28;20051;-35
2024/01/14 03:54:40;;;;;;;5.65;2.50;;;19.60;44.10;;;;;;5109094;28;20091;-34
2024/01/14 03:57:07;;;;;;;4.20;2.47;;;19.60;44.10;;;;;;5109079;27;20028;-34
2024/01/14 03:59:34;;;;;;;2.70;2.08;;;19.50;44.10;;;;;;5106748;28;20148;-35
2024/01/14 04:02:01;;;;;;;3.72;2.30;;;19.50;44.10;;;;;;5106743;28;20063;-35
2024/01/14 04:04:28;;;;;;;2.95;1.95;;;19.50;44.00;;;;;;5111664;28;20038;-33
2024/01/14 04:06:54;;;;;;;3.47;2.30;;;19.60;44.00;;;;;;5105272;28;20849;-32
2024/01/14 04:09:21;;;;;;;3.03;2.00;;;19.60;44.00;;;;;;5114070;28;20053;-36
2024/01/14 04:11:48;;;;;;;2.55;1.80;;;19.50;44.10;;;;;;5108561;28;20078;-32
2024/01/14 04:14:15;;;;;;;4.03;2.08;;;19.40;44.10;;;;;;5112583;28;20039;-36
2024/01/14 04:16:42;;;;;;;3.00;2.22;;;19.40;44.10;;;;;;5112320;28;20465;-35
2024/01/14 04:19:09;;;;;;;2.97;2.10;;;19.50;44.10;;;;;;5113196;27;20035;-33
2024/01/14 04:21:35;;;;;;;3.55;2.63;;;19.60;44.00;;;;;;5109262;28;20812;-34
2024/01/14 04:24:02;;;;;;;3.57;2.20;;;19.50;44.00;;;;;;5110019;28;20067;-35
2024/01/14 04:26:29;;;;;;;3.78;2.53;;;19.40;44.10;;;;;;5111793;28;20288;-37
2024/01/14 04:28:58;;;;;;;3.65;2.15;;;19.40;44.10;;;;;;5114698;28;20032;-35
2024/01/14 04:31:24;;;;;;;4.75;2.30;;;19.40;44.10;;;;;;5111796;28;20024;-34
2024/01/14 04:33:51;;;;;;;3.88;2.42;;;19.50;44.00;;;;;;5115857;28;20032;-35
2024/01/14 04:36:18;;;;;;;3.85;2.15;;;19.50;44.00;;;;;;5114016;28;20070;-34
2024/01/14 04:38:44;;;;;;;4.32;2.35;;;19.50;44.10;;;;;;5108882;28;20872;-35
2024/01/14 04:41:11;;;;;;;3.40;1.98;;;19.40;44.10;;;;;;5105479;28;20032;-31
2024/01/14 04:43:38;;;;;;;2.72;1.80;;;19.30;44.10;;;;;;5104693;28;20673;-35
2024/01/14 04:46:09;;;;;;;5.55;2.00;;;19.40;44.10;;;;;;5105549;27;20066;-32
2024/01/14 04:48:35;;;;;;;3.60;1.95;;;19.50;44.20;;;;;;5105203;28;22621;-36
2024/01/14 04:51:02;;;;;;;3.25;1.88;;;19.50;44.00;;;;;;5107512;28;20628;-34
2024/01/14 04:53:29;;;;;;;2.78;1.85;;;19.50;44.00;;;;;;5104713;28;20047;-35
2024/01/14 04:55:56;;;;;;;4.88;1.67;;;19.40;44.10;;;;;;5106331;28;20028;-33
2024/01/14 04:58:23;;;;;;;4.70;2.03;;;19.70;44.10;;;;;;5108339;28;20035;-36
2024/01/14 05:00:49;;;;;;;2.35;1.70;;;19.90;43.80;;;;;;5102132;28;20151;-33
2024/01/14 05:03:15;;;;;;;3.33;1.92;;;20.10;43.40;;;;;;5100411;28;20087;-36
2024/01/14 05:05:41;;;;;;;4.60;2.05;;;20.20;43.30;;;;;;5101578;28;20092;-37
2024/01/14 05:08:07;;;;;;;2.33;1.70;;;20.20;43.20;;;;;;5098762;28;20051;-36
2024/01/14 05:10:33;;;;;;;5.22;1.80;;;20.30;43.10;;;;;;5102225;28;20041;-34
2024/01/14 05:13:00;;;;;;;2.53;1.60;;;20.50;42.90;;;;;;5096900;28;20031;-34
2024/01/14 05:15:26;;;;;;;5.38;1.45;;;20.70;42.70;;;;;;5100021;28;20043;-37
2024/01/14 05:17:52;;;;;;;2.40;1.50;;;20.70;42.80;;;;;;5095288;28;20051;-36
2024/01/14 05:20:18;;;;;;;2.22;1.55;;;20.80;42.80;;;;;;5094298;28;20047;-37
2024/01/14 05:22:44;;;;;;;3.45;1.75;;;20.80;42.70;;;;;;5092752;28;20036;-34
2024/01/14 05:25:10;;;;;;;2.17;1.70;;;20.90;42.50;;;;;;5089943;28;20019;-35
2024/01/14 05:27:36;;;;;;;2.17;1.60;;;21.00;42.40;;;;;;5091864;28;20124;-36
2024/01/14 05:30:04;;;;;;;2.25;1.48;;;21.10;42.30;;;;;;5094733;28;20039;-35
2024/01/14 05:32:30;;;;;;;2.50;1.50;;;21.20;42.20;;;;;;5096162;28;20037;-37
2024/01/14 05:34:56;;;;;;;2.75;1.80;;;21.20;42.30;;;;;;5102342;28;20046;-33
2024/01/14 05:37:22;;;;;;;4.32;1.38;;;21.30;42.30;;;;;;5106735;28;20035;-37
2024/01/14 05:39:48;;;;;;;2.20;1.40;;;21.30;42.00;;;;;;5105468;28;20035;-37
2024/01/14 05:42:14;;;;;;;1.98;1.48;;;21.40;41.80;;;;;;5111976;28;20066;-36
2024/01/14 05:44:41;;;;;;;2.85;1.50;;;21.60;41.60;;;;;;5111626;28;20023;-36
2024/01/14 05:47:08;;;;;;;1.40;1.10;;;21.60;41.60;;;;;;5109527;28;20119;-35
2024/01/14 05:49:34;;;;;;;;;;;21.60;41.90;;;;;;5110870;28;20495;-33
2024/01/14 05:52:00;;;;;;;2.15;1.42;;;21.60;41.70;;;;;;5110990;28;19908;-34
2024/01/14 05:54:27;;;;;;;1.85;1.20;;;21.70;41.70;;;;;;5111938;28;20031;-36
2024/01/14 05:56:53;;;;;;;1.80;1.33;;;21.80;41.40;;;;;;5113681;28;20112;-36
2024/01/14 05:59:19;;;;;;;1.47;1.27;;;21.90;41.20;;;;;;5108311;28;20093;-36
2024/01/14 06:01:46;;;;;;;2.15;1.20;;;21.90;41.20;;;;;;5108474;28;20325;-37
2024/01/14 06:04:12;;;;;;;1.40;1.08;;;21.90;41.20;;;;;;5110745;28;20024;-35
2024/01/14 06:06:38;;;;;;;1.88;1.20;;;22.00;41.40;;;;;;5111826;28;20066;-36
2024/01/14 06:09:04;;;;;;;1.42;1.08;;;22.10;41.10;;;;;;5114439;28;20079;-33
2024/01/14 06:11:30;;;;;;;2.78;1.50;;;22.10;40.90;;;;;;5108455;28;20038;-35
2024/01/14 06:13:56;;;;;;;1.40;1.02;;;22.20;41.30;;;;;;5109455;28;20091;-35
2024/01/14 06:16:22;;;;;;;2.38;1.23;;;22.20;40.80;;;;;;5110539;28;20031;-33
2024/01/14 06:18:49;;;;;;;1.20;1.10;;;22.00;41.00;;;;;;5116412;28;20057;-35
2024/01/14 06:21:15;;;;;;;1.83;1.10;;;21.90;41.10;;;;;;5116413;28;20044;-34
2024/01/14 06:23:41;;;;;;;1.98;1.30;;;21.80;41.30;;;;;;5111547;28;20031;-33
2024/01/14 06:26:07;;;;;;;1.55;0.90;;;21.80;41.10;;;;;;5103828;28;20050;-37
2024/01/14 06:28:33;;;;;;;1.23;1.05;;;21.70;41.00;;;;;;5105953;28;20039;-33
2024/01/14 06:30:59;;;;;;;1.33;1.02;;;21.70;41.10;;;;;;5102755;28;20061;-34
2024/01/14 06:33:26;;;;;;;1.38;0.93;;;21.50;41.20;;;;;;5109623;28;20028;-36
2024/01/14 06:35:52;;;;;;;3.10;1.20;;;21.40;41.40;;;;;;5104097;28;20039;-36
2024/01/14 06:38:19;;;;;;;2.92;0.95;;;21.40;41.50;;;;;;5107889;28;20039;-36
2024/01/14 06:40:45;;;;;;;2.08;1.02;;;21.50;41.40;;;;;;5109726;28;20043;-36
2024/01/14 06:43:11;;;;;;;1.55;0.90;;;21.60;41.30;;;;;;5108906;28;20035;-35
2024/01/14 06:45:37;;;;;;;1.10;0.97;;;21.70;41.10;;;;;;5114522;28;20734;-34
2024/01/14 06:50:48;;;;;;;1.20;0.90;;;21.80;40.90;;;;;;5106755;28;20038;-34
2024/01/14 06:53:15;;;;;;;2.90;1.20;;;22.00;40.70;;;;;;5114124;28;20035;-37
2024/01/14 06:55:41;;;;;;;1.73;0.90;;;22.10;40.50;;;;;;5114460;28;20034;-36
2024/01/14 06:58:07;;;;;;;1.30;0.93;;;22.10;40.50;;;;;;5110079;28;20055;-37
2024/01/14 07:00:33;;;;;;;1.45;1.10;;;22.10;40.60;;;;;;5111791;27;20147;-34
2024/01/14 07:02:59;;;;;;;1.00;0.88;;;22.10;40.60;;;;;;5112931;28;20020;-33
2024/01/14 07:05:25;;;;;;;1.10;0.93;;;22.20;40.40;;;;;;5115353;28;20032;-36
2024/01/14 07:07:52;;;;;;;1.60;1.20;;;22.20;40.50;;;;;;5117659;27;20027;-36
2024/01/14 07:10:18;;;;;;;1.33;1.05;;;22.40;40.10;;;;;;5117052;27;20052;-36
2024/01/14 07:12:44;;;;;;;1.30;1.08;;;22.30;40.30;;;;;;5112192;28;20039;-37
2024/01/14 07:15:10;;;;;;;1.45;1.05;;;22.10;40.30;;;;;;5119398;28;20027;-34
2024/01/14 07:17:36;;;;;;;1.52;1.10;;;22.00;40.60;;;;;;5115165;28;20472;-37
2024/01/14 07:20:02;;;;;;;1.98;1.38;;;21.90;40.80;;;;;;5118049;28;20043;-36
2024/01/14 07:22:29;;;;;;;2.22;1.20;;;21.90;40.70;;;;;;5119883;28;20042;-32
2024/01/14 07:24:55;;;;;;;1.42;1.02;;;21.80;40.40;;;;;;5111997;28;20046;-36
2024/01/14 07:27:21;;;;;;;1.50;1.20;;;21.80;41.10;;;;;;5113573;28;20130;-36
2024/01/14 07:29:47;;;;;;;2.17;1.30;;;21.70;40.70;;;;;;5114698;28;20943;-37
2024/01/14 07:32:13;;;;;;;1.20;1.10;;;21.60;40.80;;;;;;5112718;27;20034;-36
2024/01/14 07:34:40;;;;;;;2.00;1.33;;;21.50;41.00;;;;;;5110456;28;20087;-37
2024/01/14 07:37:06;;;;;;;1.58;1.20;;;21.50;40.90;;;;;;5114629;28;20024;-33
2024/01/14 07:39:32;;;;;;;1.58;1.30;;;21.60;40.90;;;;;;5111395;27;20090;-34
2024/01/14 07:41:59;;;;;;;1.95;1.27;;;21.70;40.60;;;;;;5113515;27;20047;-37
2024/01/14 07:44:25;;;;;;;2.65;1.23;;;21.90;40.50;;;;;;5112234;27;20044;-35
2024/01/14 07:46:51;;;;;;;3.03;1.30;;;21.90;40.50;;;;;;5144147;27;20042;-36
2024/01/14 07:49:17;;;;;;;2.08;1.45;;;22.00;40.20;;;;;;5114513;28;20026;-34
2024/01/14 07:51:43;;;;;;;1.40;1.30;;;22.10;40.20;;;;;;5122962;27;20095;-34
2024/01/14 07:54:09;;;;;;;1.60;1.30;;;22.20;40.00;;;;;;5115776;28;20024;-36
2024/01/14 07:56:35;;;;;;;1.92;1.30;;;22.20;40.00;;;;;;5118400;28;20016;-33
2024/01/14 07:59:02;;;;;;;2.13;1.33;;;22.20;40.10;;;;;;5132903;27;20028;-37
2024/01/14 08:01:30;;;;;;;1.77;1.23;;;22.30;40.00;;;;;;5111547;28;20039;-36
2024/01/14 08:03:56;;;;;;;2.42;1.50;;;22.40;39.80;;;;;;5112110;28;20031;-36
2024/01/14 08:06:24;;;;;;;1.60;1.23;;;22.50;39.70;;;;;;5110660;27;20096;-36
2024/01/14 08:08:50;;;;;;;2.50;1.42;;;22.40;39.80;;;;;;5120024;28;20031;-38
2024/01/14 08:11:17;;;;;;;1.67;1.30;;;22.30;40.00;;;;;;5111411;28;20049;-34
2024/01/14 08:13:43;;;;;;;1.83;1.50;;;22.10;40.10;;;;;;5112469;27;20062;-33
2024/01/14 08:16:09;;;;;;;1.48;1.20;;;22.00;40.30;;;;;;5112447;28;20335;-35
2024/01/14 08:18:35;;;;;;;2.30;1.53;;;21.90;40.20;;;;;;5112983;28;20046;-33
2024/01/14 08:21:02;;;;;;;2.10;1.58;;;21.90;40.10;;;;;;5120483;28;20036;-37
2024/01/14 08:23:34;;;;;;;2.50;1.70;;;21.90;40.10;;;;;;5119293;28;20087;-36
2024/01/14 08:26:04;;;;;;;3.17;1.83;;;21.80;40.30;;;;;;5118426;28;20073;-32
2024/01/14 08:28:32;;;;;;;2.50;1.55;;;21.70;40.50;;;;;;5121450;27;20043;-35
2024/01/14 08:30:58;;;;;;;2.75;1.80;;;21.60;40.60;;;;;;5120825;28;20062;-36
2024/01/14 08:33:24;;;;;;;2.50;1.52;;;21.60;40.60;;;;;;5121000;28;20083;-35
2024/01/14 08:35:50;;;;;;;2.30;1.65;;;21.70;40.40;;;;;;5118477;28;20480;-35
2024/01/14 08:38:16;;;;;;;2.97;1.80;;;21.90;40.30;;;;;;5120766;28;20031;-37
2024/01/14 08:40:42;;;;;;;2.88;1.75;;;22.00;40.20;;;;;;5117835;28;20057;-32
2024/01/14 08:43:08;;;;;;;1.95;1.58;;;22.00;40.20;;;;;;5112800;28;20027;-36
2024/01/14 08:45:35;;;;;;;2.63;1.80;;;22.10;39.90;;;;;;5114727;28;20020;-36
2024/01/14 08:48:01;;;;;;;3.10;2.00;;;22.20;39.80;;;;;;5111668;28;20114;-35
2024/01/14 08:50:27;;;;;;;2.40;1.63;;;22.30;39.70;;;;;;5113211;28;20540;-34
2024/01/14 08:52:54;;;;;;;3.15;2.20;;;22.20;39.80;;;;;;5107476;28;20028;-34
2024/01/14 08:55:20;;;;;;;3.65;2.30;;;22.10;40.00;;;;;;5106933;28;20046;-36
2024/01/14 08:57:46;;;;;;;2.85;2.10;;;21.90;40.20;;;;;;5106356;28;20811;-35
2024/01/14 09:00:13;;;;;;;3.50;2.10;;;21.80;40.40;;;;;;5106194;28;20039;-35
2024/01/14 09:02:39;;;;;;;3.63;2.13;;;21.80;40.20;;;;;;5098268;28;20036;-33
2024/01/14 09:05:05;;;;;;;3.37;2.00;;;21.70;40.10;;;;;;5100794;28;20295;-33
2024/01/14 09:07:33;;;;;;;3.67;2.40;;;21.70;40.20;;;;;;5102103;28;20028;-33
2024/01/14 09:09:59;;;;;;;3.15;2.20;;;21.60;40.30;;;;;;5105257;28;20046;-36
2024/01/14 09:12:25;;;;;;;3.20;1.60;;;21.50;40.50;;;;;;5111100;28;20027;-36
2024/01/14 09:14:52;;;;;;;3.05;2.13;;;21.40;40.50;;;;;;5110987;28;20227;-36
2024/01/14 09:17:18;;;;;;;3.80;2.33;;;21.50;40.40;;;;;;5113450;28;20061;-31
2024/01/14 09:19:44;;;;;;;2.92;2.20;;;21.60;40.40;;;;;;5111334;28;20028;-36
2024/01/14 09:22:10;;;;;;;3.38;2.35;;;21.80;40.10;;;;;;5119422;28;20028;-33
2024/01/14 09:24:42;;;;;;;3.17;2.08;;;21.80;40.10;;;;;;5119682;27;20032;-35
2024/01/14 09:27:08;;;;;;;3.08;2.35;;;21.90;40.00;;;;;;5119884;28;20055;-35
2024/01/14 09:29:34;;;;;;;3.90;2.58;;;22.00;39.90;;;;;;5120189;28;20036;-32
2024/01/14 09:32:01;;;;;;;3.83;2.20;;;22.10;39.80;;;;;;5117799;27;20136;-32
2024/01/14 09:34:27;;;;;;;2.95;2.05;;;22.20;39.60;;;;;;5117811;28;20087;-36
2024/01/14 09:36:53;;;;;;;4.53;2.35;;;22.10;39.90;;;;;;5119426;28;20027;-35
2024/01/14 09:39:19;;;;;;;3.20;2.47;;;21.90;40.00;;;;;;5120055;28;20027;-33
2024/01/14 09:41:49;;;;;;;3.15;2.10;;;21.80;40.20;;;;;;5117031;28;20818;-31
2024/01/14 09:44:15;;;;;;;2.67;2.15;;;21.70;40.30;;;;;;5119090;28;20018;-37
2024/01/14 09:46:42;;;;;;;3.23;2.50;;;21.70;40.10;;;;;;5119299;28;20035;-34
2024/01/14 09:49:11;;;;;;;4.93;2.42;;;21.60;40.00;;;;;;5118958;28;20268;-34
2024/01/14 09:51:38;;;;;;;4.63;2.50;;;21.60;40.20;;;;;;5119289;28;20043;-36
2024/01/14 09:54:04;;;;;;;3.08;2.40;;;21.50;40.30;;;;;;5119175;28;20049;-34
2024/01/14 09:56:32;;;;;;;3.15;2.05;;;21.40;40.50;;;;;;5117886;28;20049;-35
2024/01/14 09:58:58;;;;;;;3.53;2.58;;;21.50;40.50;;;;;;5116548;28;20036;-35
2024/01/14 10:01:30;;;;;;;2.93;2.27;;;21.60;40.30;;;;;;5118819;28;20398;-37
2024/01/14 10:04:00;;;;;;;3.95;2.42;;;21.70;40.10;;;;;;5116591;28;20049;-34
2024/01/14 10:06:27;;;;;;;2.67;1.83;;;21.80;40.10;;;;;;5116961;28;20060;-35
2024/01/14 10:08:53;;;;;;;4.72;2.50;;;21.80;40.00;;;;;;5114174;28;20059;-31
2024/01/14 10:11:19;;;;;;;4.10;2.38;;;21.90;39.80;;;;;;5117742;28;20028;-34
2024/01/14 10:13:46;;;;;;;2.92;1.90;;;22.10;39.80;;;;;;5120729;28;20047;-33
2024/01/14 10:16:12;;;;;;;3.08;2.28;;;22.20;39.50;;;;;;5120494;28;20031;-32
2024/01/14 10:18:38;;;;;;;2.83;2.28;;;22.10;39.70;;;;;;5122022;27;20031;-32
2024/01/14 10:21:05;;;;;;;3.20;2.25;;;22.00;39.80;;;;;;5117642;28;20062;-33
2024/01/14 10:23:31;;;;;;;4.22;2.20;;;21.80;40.00;;;;;;5114789;28;20028;-32
2024/01/14 10:26:03;;;;;;;3.08;2.17;;;21.80;40.20;;;;;;5115477;28;20055;-32
2024/01/14 10:28:33;;;;;;;3.53;2.30;;;21.70;40.00;;;;;;5115005;28;20044;-33
2024/01/14 10:31:01;;;;;;;3.40;2.15;;;21.70;40.00;;;;;;5113383;28;20024;-31
2024/01/14 10:33:30;;;;;;;3.10;2.17;;;21.60;40.10;;;;;;5114429;28;20023;-35
2024/01/14 10:35:57;;;;;;;4.95;2.13;;;21.50;40.30;;;;;;5112945;28;20049;-36
2024/01/14 10:38:23;;;;;;;3.08;2.08;;;21.40;40.40;;;;;;5113888;28;20100;-34
2024/01/14 10:40:49;;;;;;;3.55;2.22;;;21.40;40.40;;;;;;5115298;27;20147;-34
2024/01/14 10:43:15;;;;;;;2.38;1.55;;;21.50;40.50;;;;;;5116419;27;20038;-32
2024/01/14 10:45:41;;;;;;;2.53;2.03;;;21.60;40.30;;;;;;5114885;28;20031;-33
2024/01/14 10:48:13;;;;;;;2.53;1.90;;;21.80;40.00;;;;;;5113667;28;20031;-34
2024/01/14 10:50:42;;;;;;;3.65;2.00;;;21.90;39.90;;;;;;5116032;28;20057;-36
2024/01/14 10:53:12;;;;;;;2.20;1.80;;;21.90;39.70;;;;;;5120108;28;20028;-35
2024/01/14 10:55:43;;;;;;;3.10;2.00;;;22.00;39.60;;;;;;5111865;28;20027;-31
2024/01/14 10:58:12;;;;;;;2.47;2.20;;;22.10;39.60;;;;;;5113410;28;20034;-32
2024/01/14 11:00:38;;;;;;;2.75;2.00;;;22.20;39.60;;;;;;5122477;28;20071;-35
2024/01/14 11:03:07;;;;;;;3.83;2.08;;;22.00;39.80;;;;;;5119250;28;20031;-35
2024/01/14 11:05:33;;;;;;;3.17;1.90;;;21.90;40.00;;;;;;5121241;28;20154;-34
2024/01/14 11:08:03;;;;;;;2.83;2.20;;;21.80;40.10;;;;;;5120286;28;20055;-35
2024/01/14 11:10:29;;;;;;;2.30;1.77;;;21.70;40.00;;;;;;5120573;28;20271;-35
2024/01/14 11:13:34;;;;;;;3.05;1.75;;;21.60;39.80;;;;;;5129616;27;20032;-36
2024/01/14 11:16:23;;;;;;;3.05;2.08;;;21.60;39.90;;;;;;5120027;28;20027;-35
2024/01/14 11:18:52;;;;;;;2.55;1.90;;;21.50;40.20;;;;;;5117802;28;20035;-34
2024/01/14 11:21:36;;;;;;;2.72;2.03;;;21.40;40.30;;;;;;5120177;28;20050;-35
2024/01/14 11:24:03;;;;;;;2.88;1.90;;;21.40;40.20;;;;;;5120768;28;20023;-35
2024/01/14 11:26:29;;;;;;;2.47;1.90;;;21.40;40.20;;;;;;5122541;28;20181;-35
2024/01/14 11:28:55;;;;;;;2.53;1.98;;;21.40;40.30;;;;;;5120459;28;20057;-34
2024/01/14 11:31:21;;;;;;;3.67;2.22;;;21.30;40.80;;;;;;5122148;28;20027;-35
2024/01/14 11:33:49;;;;;;;2.85;1.90;;;21.20;40.40;;;;;;5119608;28;20032;-36
2024/01/14 11:36:54;;;;;;;2.78;2.20;;;21.10;40.50;;;;;;5119684;28;20027;-35
2024/01/14 11:39:20;;;;;;;2.63;2.00;;;21.10;40.40;;;;;;5118780;28;20032;-37
2024/01/14 11:41:46;;;;;;;3.28;2.05;;;21.10;40.30;;;;;;5118368;28;20856;-32
2024/01/14 11:44:12;;;;;;;4.10;2.00;;;21.10;40.40;;;;;;5121341;28;20083;-34
2024/01/14 11:46:42;;;;;;;2.80;1.92;;;21.00;40.60;;;;;;5119309;28;20039;-33
2024/01/14 11:49:10;;;;;;;2.85;2.08;;;20.90;40.70;;;;;;5117354;28;20073;-32
2024/01/14 11:51:43;;;;;;;2.20;1.85;;;20.90;40.60;;;;;;5116081;28;20035;-36
2024/01/14 11:54:10;;;;;;;2.75;2.15;;;20.90;40.60;;;;;;5110259;28;20044;-35
2024/01/14 11:56:36;;;;;;;2.58;1.95;;;20.90;40.60;;;;;;5111641;28;20041;-34
2024/01/14 11:59:09;;;;;;;3.20;2.03;;;20.80;40.80;;;;;;5113950;28;20383;-36
2024/01/14 12:01:36;;;;;;;3.17;2.00;;;20.70;40.90;;;;;;5110437;27;20063;-35
2024/01/14 12:04:05;;;;;;;2.38;1.80;;;20.70;41.00;;;;;;5112074;27;20109;-36
2024/01/14 12:06:41;;;;;;;4.57;2.25;;;20.70;40.90;;;;;;5111021;28;20035;-34
2024/01/14 12:09:08;;;;;;;2.13;1.65;;;20.70;40.80;;;;;;5106399;27;20899;-33
2024/01/14 12:11:38;;;;;;;2.33;1.90;;;20.70;40.90;;;;;;5104168;28;20035;-37
2024/01/14 12:14:04;;;;;;;2.38;1.90;;;20.60;41.10;;;;;;5107345;28;20036;-36
2024/01/14 12:16:33;;;;;;;2.58;1.73;;;20.50;41.20;;;;;;5113484;27;20023;-34
2024/01/14 12:19:00;;;;;;;3.42;1.85;;;20.40;41.10;;;;;;5110412;28;20039;-32
2024/01/14 12:21:27;;;;;;;1.92;1.60;;;20.50;41.10;;;;;;5116176;27;20044;-36
2024/01/14 12:23:53;;;;;;;2.35;1.90;;;20.50;41.10;;;;;;5118738;28;20022;-36
2024/01/14 12:26:20;;;;;;;2.58;1.90;;;20.50;41.20;;;;;;5116293;28;20056;-33
2024/01/14 12:28:46;;;;;;;2.45;1.73;;;20.40;41.40;;;;;;5112341;28;20032;-36
2024/01/14 12:31:19;;;;;;;2.65;1.73;;;20.30;41.50;;;;;;5119314;28;20027;-34
2024/01/14 12:33:46;;;;;;;2.60;1.70;;;20.20;41.60;;;;;;5108383;27;20042;-34
2024/01/14 12:36:13;;;;;;;2.35;1.73;;;20.20;41.50;;;;;;5114109;28;20027;-34
2024/01/14 12:38:40;;;;;;;2.22;1.48;;;20.30;41.50;;;;;;5110685;28;20786;-33
2024/01/14 12:41:06;;;;;;;3.92;1.80;;;20.20;41.60;;;;;;5116618;28;20032;-35
2024/01/14 12:43:32;;;;;;;2.20;1.67;;;20.20;41.70;;;;;;5112756;27;20043;-34
2024/01/14 12:45:58;;;;;;;2.85;1.80;;;20.10;41.70;;;;;;5111171;28;20036;-31
2024/01/14 12:48:25;;;;;;;2.50;1.73;;;20.10;41.90;;;;;;5141597;27;20058;-34
2024/01/14 12:50:58;;;;;;;2.60;1.90;;;20.10;41.80;;;;;;5108069;27;20076;-33